To NAV CANADA Home Page Login to a new session Search on AWWS site Feedback and Comments Disclaimer Vers la page française équivalente Tips FAQ What's new on the site To the Forecasts and Observations / NOTAM section To "File a Flight Plan" website Publications and other links Update of the User's profile FIC Telephone Numbers My Weather Data Folder Route Weather Data Regional Weather Data Local Weather Data To the Forecasts and Observations / NOTAM section
Request Generated 08/22/2017 at 01:38:01 UTC . Weather information available at that time is displayed.


Go to a specific product

Save this request - Inactive

METAR/TAF

OTTAWA/GATINEAU/QC    

METAR CYND 220100Z 22006KT 180V250 15SM SCT050TCU 25/20 A2996 RMK
TCU4 LAST STFD OBS/NEXT 221100 UTC SLP148 DENSITY ALT 1400FT=
METAR CYND 220000Z 21005KT 15SM SCT049TCU BKN200 26/20 A2995 RMK
TCU4CI2 SLP143 DENSITY ALT 1500FT=
METAR CYND 212300Z 22009G16KT 15SM SCT051 SCT260 27/19 A2994 RMK
SC3CI1 SLP140 DENSITY ALT 1700FT=

*** REMARK        : Forecast period has ended; this was the last TAF issued
*** REMARQUE : La période de prévision est échue; ceci était le dernier TAF qui a été émis
TAF CYND 211739Z 2118/2201 23010G20KT P6SM FEW040 PROB30 2120/2123
VRB15G30KT 3SM TSRA BKN040CB
BECMG 2123/2201 21007KT
RMK NXT FCST WILL BE ISSUED AT 221245Z=

OTTAWA/MACDONALD-CARTIER INTL/ON    

METAR CYOW 220100Z 20007KT 15SM FEW050 FEW250 23/20 A2998 RMK SC1CI1
CI TR DIST OCNL LTNG NNE SLP153 DENSITY ALT 1400FT=
METAR CYOW 220000Z 20006KT 15SM FEW050 SCT250 24/20 A2997 RMK SC2CI2
SLP149 DENSITY ALT 1500FT=
METAR CYOW 212300Z 20009G15KT 15SM FEW050 SCT250 26/20 A2996 RMK
SC2CI1 SLP147 DENSITY ALT 1700FT=

TAF CYOW 212338Z 2200/2224 21008KT P6SM FEW050 FEW240
FM220900 18007KT P6SM FEW030 BKN180 PROB30 2209/2213 1/2SM FG
VV002
FM221400 19012G22KT P6SM BKN030
FM221600 20017G27KT 4SM SHRA OVC030 TEMPO 2216/2219 VRB25G40KT
1SM +TSRA BKN015 OVC025CB PROB30 2216/2218 VRB35G55KT 1/2SM
+TSGRRA BKN008 OVC020CB
FM221900 21015G25KT P6SM -SHRA BKN015 OVC060 PROB30 2219/2221
VRB15G30KT 4SM TSRA BKN010 OVC050CB
BECMG 2221/2223 24012KT
RMK NXT FCST BY 220300Z=


GRAPHICAL FA CLOUDS & WEATHER FORECASTS
To the Product Selector
Graphical FA gfacn33      

GRAPHICAL FA ICING, TURBULENCE & FREEZING LEVEL FORECASTS
To the Product Selector
Graphical FA gfacn33      

FDTEXT Low Level FD. Temperatures are not forecast for the 3,000-foot level.
To the Product Selector
STN YOW - OTTAWA. ONT for use 3000 6000 9000 12000 18000
FDCN01 CWAO FCST BASED ON 211200 DATA VALID 211800 17-21 2418 2721+14 2822+08 2730+03 2734-10
FDCN02 CWAO FCST BASED ON 211200 DATA VALID 220000 21-06 2418 2814+14 2818+09 2824+03 2633-10
FDCN03 CWAO FCST BASED ON 211200 DATA VALID 221200 06-17 2026 2224+16 2231+09 2337+03 2539-09



Your time UTC time
Weather data provided by Environment Canada and NAV CANADA